sensor_id;sensor_type;location;lat;lon;timestamp;P1;durP1;ratioP1;P2;durP2;ratioP2
12635;SDS011;6383;50.830;7.210;2022-09-28T00:01:18;6.05;;;1.70;;
12635;SDS011;6383;50.830;7.210;2022-09-28T00:03:50;4.78;;;1.90;;
12635;SDS011;6383;50.830;7.210;2022-09-28T00:06:23;4.45;;;2.20;;
12635;SDS011;6383;50.830;7.210;2022-09-28T00:08:53;2.80;;;1.88;;
12635;SDS011;6383;50.830;7.210;2022-09-28T00:11:23;4.22;;;2.50;;
12635;SDS011;6383;50.830;7.210;2022-09-28T00:13:53;8.05;;;2.78;;
12635;SDS011;6383;50.830;7.210;2022-09-28T00:16:23;3.35;;;2.08;;
12635;SDS011;6383;50.830;7.210;2022-09-28T00:18:54;2.83;;;1.90;;
12635;SDS011;6383;50.830;7.210;2022-09-28T00:21:23;3.75;;;2.03;;
12635;SDS011;6383;50.830;7.210;2022-09-28T00:23:53;4.90;;;2.42;;
12635;SDS011;6383;50.830;7.210;2022-09-28T00:26:43;4.18;;;2.53;;
12635;SDS011;6383;50.830;7.210;2022-09-28T00:29:14;5.00;;;2.60;;
12635;SDS011;6383;50.830;7.210;2022-09-28T00:31:47;6.70;;;3.00;;
12635;SDS011;6383;50.830;7.210;2022-09-28T00:34:19;6.43;;;3.38;;
12635;SDS011;6383;50.830;7.210;2022-09-28T00:36:47;3.72;;;2.47;;
12635;SDS011;6383;50.830;7.210;2022-09-28T00:39:15;5.30;;;2.35;;
12635;SDS011;6383;50.830;7.210;2022-09-28T00:41:43;7.47;;;3.08;;
12635;SDS011;6383;50.830;7.210;2022-09-28T00:47:17;2.90;;;2.40;;
12635;SDS011;6383;50.830;7.210;2022-09-28T00:49:55;3.70;;;2.05;;
12635;SDS011;6383;50.830;7.210;2022-09-28T00:52:30;6.05;;;2.10;;
12635;SDS011;6383;50.830;7.210;2022-09-28T00:55:04;2.65;;;2.35;;
12635;SDS011;6383;50.830;7.210;2022-09-28T00:57:35;4.20;;;2.33;;
12635;SDS011;6383;50.830;7.210;2022-09-28T01:00:07;5.70;;;2.58;;
12635;SDS011;6383;50.830;7.210;2022-09-28T01:02:37;10.50;;;2.78;;
12635;SDS011;6383;50.830;7.210;2022-09-28T01:05:07;2.42;;;1.70;;
12635;SDS011;6383;50.830;7.210;2022-09-28T01:07:36;3.00;;;2.00;;
12635;SDS011;6383;50.830;7.210;2022-09-28T01:10:05;6.95;;;2.45;;
12635;SDS011;6383;50.830;7.210;2022-09-28T01:12:35;5.40;;;2.53;;
12635;SDS011;6383;50.830;7.210;2022-09-28T01:15:03;3.17;;;1.52;;
12635;SDS011;6383;50.830;7.210;2022-09-28T01:17:35;7.85;;;2.75;;
12635;SDS011;6383;50.830;7.210;2022-09-28T01:20:27;4.80;;;1.67;;
12635;SDS011;6383;50.830;7.210;2022-09-28T01:26:14;2.85;;;1.75;;
12635;SDS011;6383;50.830;7.210;2022-09-28T01:28:59;4.60;;;2.03;;
12635;SDS011;6383;50.830;7.210;2022-09-28T01:31:33;4.97;;;1.90;;
12635;SDS011;6383;50.830;7.210;2022-09-28T01:34:07;2.50;;;1.52;;
12635;SDS011;6383;50.830;7.210;2022-09-28T01:39:11;3.05;;;1.30;;
12635;SDS011;6383;50.830;7.210;2022-09-28T01:41:47;3.88;;;1.50;;
12635;SDS011;6383;50.830;7.210;2022-09-28T01:44:20;2.60;;;1.58;;
12635;SDS011;6383;50.830;7.210;2022-09-28T01:46:49;3.13;;;1.23;;
12635;SDS011;6383;50.830;7.210;2022-09-28T01:49:21;1.83;;;1.33;;
12635;SDS011;6383;50.830;7.210;2022-09-28T01:51:53;3.92;;;1.80;;
12635;SDS011;6383;50.830;7.210;2022-09-28T01:54:28;2.00;;;1.20;;
12635;SDS011;6383;50.830;7.210;2022-09-28T01:57:03;3.60;;;1.90;;
12635;SDS011;6383;50.830;7.210;2022-09-28T01:59:37;1.27;;;1.17;;
12635;SDS011;6383;50.830;7.210;2022-09-28T02:02:10;6.03;;;1.50;;
12635;SDS011;6383;50.830;7.210;2022-09-28T02:04:44;2.40;;;1.20;;
12635;SDS011;6383;50.830;7.210;2022-09-28T02:07:17;2.95;;;0.90;;
12635;SDS011;6383;50.830;7.210;2022-09-28T02:09:51;3.25;;;1.25;;
12635;SDS011;6383;50.830;7.210;2022-09-28T02:12:25;1.30;;;1.10;;
12635;SDS011;6383;50.830;7.210;2022-09-28T02:15:03;2.20;;;1.08;;
12635;SDS011;6383;50.830;7.210;2022-09-28T02:17:39;1.63;;;0.90;;
12635;SDS011;6383;50.830;7.210;2022-09-28T02:20:07;3.08;;;1.10;;
12635;SDS011;6383;50.830;7.210;2022-09-28T02:22:37;2.33;;;0.98;;
12635;SDS011;6383;50.830;7.210;2022-09-28T02:25:10;8.27;;;1.70;;
12635;SDS011;6383;50.830;7.210;2022-09-28T02:27:44;3.13;;;1.00;;
12635;SDS011;6383;50.830;7.210;2022-09-28T02:30:20;3.78;;;1.35;;
12635;SDS011;6383;50.830;7.210;2022-09-28T02:32:48;4.18;;;1.83;;
12635;SDS011;6383;50.830;7.210;2022-09-28T02:35:20;5.57;;;1.95;;
12635;SDS011;6383;50.830;7.210;2022-09-28T02:37:48;7.22;;;2.45;;
12635;SDS011;6383;50.830;7.210;2022-09-28T02:40:18;2.35;;;1.80;;
12635;SDS011;6383;50.830;7.210;2022-09-28T02:42:55;2.47;;;1.48;;
12635;SDS011;6383;50.830;7.210;2022-09-28T02:45:32;3.63;;;1.98;;
12635;SDS011;6383;50.830;7.210;2022-09-28T02:48:14;3.45;;;1.98;;
12635;SDS011;6383;50.830;7.210;2022-09-28T02:50:50;3.25;;;1.13;;
12635;SDS011;6383;50.830;7.210;2022-09-28T02:53:35;4.07;;;1.75;;
12635;SDS011;6383;50.830;7.210;2022-09-28T02:56:19;8.48;;;2.13;;
12635;SDS011;6383;50.830;7.210;2022-09-28T02:59:04;2.92;;;1.20;;
12635;SDS011;6383;50.830;7.210;2022-09-28T03:01:41;4.40;;;2.10;;
12635;SDS011;6383;50.830;7.210;2022-09-28T03:04:27;4.72;;;1.73;;
12635;SDS011;6383;50.830;7.210;2022-09-28T03:07:03;3.90;;;1.92;;
12635;SDS011;6383;50.830;7.210;2022-09-28T03:09:36;2.58;;;2.05;;
12635;SDS011;6383;50.830;7.210;2022-09-28T03:12:12;4.85;;;2.42;;
12635;SDS011;6383;50.830;7.210;2022-09-28T03:14:45;5.47;;;3.28;;
12635;SDS011;6383;50.830;7.210;2022-09-28T03:17:14;4.00;;;3.60;;
12635;SDS011;6383;50.830;7.210;2022-09-28T03:19:42;4.93;;;3.03;;
12635;SDS011;6383;50.830;7.210;2022-09-28T03:22:10;9.00;;;3.72;;
12635;SDS011;6383;50.830;7.210;2022-09-28T03:24:38;9.18;;;3.90;;
12635;SDS011;6383;50.830;7.210;2022-09-28T03:27:06;3.65;;;3.25;;
12635;SDS011;6383;50.830;7.210;2022-09-28T03:29:34;9.57;;;4.82;;
12635;SDS011;6383;50.830;7.210;2022-09-28T03:32:05;4.88;;;2.92;;
12635;SDS011;6383;50.830;7.210;2022-09-28T03:34:34;4.03;;;3.58;;
12635;SDS011;6383;50.830;7.210;2022-09-28T03:37:02;10.02;;;3.83;;
12635;SDS011;6383;50.830;7.210;2022-09-28T03:39:30;7.95;;;4.00;;
12635;SDS011;6383;50.830;7.210;2022-09-28T03:41:58;5.07;;;4.55;;
12635;SDS011;6383;50.830;7.210;2022-09-28T03:44:26;8.30;;;4.28;;
12635;SDS011;6383;50.830;7.210;2022-09-28T03:46:53;5.30;;;4.80;;
12635;SDS011;6383;50.830;7.210;2022-09-28T03:49:23;5.13;;;4.65;;
12635;SDS011;6383;50.830;7.210;2022-09-28T03:51:51;6.03;;;4.65;;
12635;SDS011;6383;50.830;7.210;2022-09-28T03:54:20;5.75;;;5.03;;
12635;SDS011;6383;50.830;7.210;2022-09-28T03:56:48;9.50;;;5.95;;
12635;SDS011;6383;50.830;7.210;2022-09-28T03:59:18;8.45;;;6.30;;
12635;SDS011;6383;50.830;7.210;2022-09-28T04:01:47;11.20;;;5.75;;
12635;SDS011;6383;50.830;7.210;2022-09-28T04:04:14;7.43;;;4.88;;
12635;SDS011;6383;50.830;7.210;2022-09-28T04:06:44;10.82;;;4.82;;
12635;SDS011;6383;50.830;7.210;2022-09-28T04:09:13;9.27;;;6.20;;
12635;SDS011;6383;50.830;7.210;2022-09-28T04:11:41;6.75;;;5.20;;
12635;SDS011;6383;50.830;7.210;2022-09-28T04:14:10;8.88;;;6.25;;
12635;SDS011;6383;50.830;7.210;2022-09-28T04:16:37;10.52;;;5.88;;
12635;SDS011;6383;50.830;7.210;2022-09-28T04:19:06;8.50;;;5.65;;
12635;SDS011;6383;50.830;7.210;2022-09-28T04:21:35;8.82;;;6.82;;
12635;SDS011;6383;50.830;7.210;2022-09-28T04:24:06;9.73;;;7.15;;
12635;SDS011;6383;50.830;7.210;2022-09-28T04:26:34;9.73;;;5.78;;
12635;SDS011;6383;50.830;7.210;2022-09-28T04:29:02;7.90;;;5.60;;
12635;SDS011;6383;50.830;7.210;2022-09-28T04:31:43;10.85;;;6.03;;
12635;SDS011;6383;50.830;7.210;2022-09-28T04:34:15;6.97;;;5.00;;
12635;SDS011;6383;50.830;7.210;2022-09-28T04:36:45;8.55;;;6.55;;
12635;SDS011;6383;50.830;7.210;2022-09-28T04:39:16;6.50;;;5.60;;
12635;SDS011;6383;50.830;7.210;2022-09-28T04:41:46;10.73;;;5.75;;
12635;SDS011;6383;50.830;7.210;2022-09-28T04:44:15;6.18;;;5.57;;
12635;SDS011;6383;50.830;7.210;2022-09-28T04:46:43;8.18;;;6.30;;
12635;SDS011;6383;50.830;7.210;2022-09-28T04:49:11;8.25;;;6.50;;
12635;SDS011;6383;50.830;7.210;2022-09-28T04:51:41;11.68;;;6.65;;
12635;SDS011;6383;50.830;7.210;2022-09-28T04:54:09;7.53;;;6.40;;
12635;SDS011;6383;50.830;7.210;2022-09-28T04:56:39;12.38;;;6.45;;
12635;SDS011;6383;50.830;7.210;2022-09-28T04:59:08;6.53;;;5.90;;
12635;SDS011;6383;50.830;7.210;2022-09-28T05:01:38;7.85;;;6.80;;
12635;SDS011;6383;50.830;7.210;2022-09-28T05:04:07;9.60;;;5.70;;
12635;SDS011;6383;50.830;7.210;2022-09-28T05:06:35;7.43;;;6.22;;
12635;SDS011;6383;50.830;7.210;2022-09-28T05:09:03;11.75;;;9.50;;
12635;SDS011;6383;50.830;7.210;2022-09-28T05:11:32;37.17;;;33.15;;
12635;SDS011;6383;50.830;7.210;2022-09-28T05:14:01;14.77;;;13.32;;
12635;SDS011;6383;50.830;7.210;2022-09-28T05:16:28;32.72;;;28.75;;
12635;SDS011;6383;50.830;7.210;2022-09-28T05:18:58;26.75;;;21.85;;
12635;SDS011;6383;50.830;7.210;2022-09-28T05:21:26;15.82;;;13.38;;
12635;SDS011;6383;50.830;7.210;2022-09-28T05:23:56;9.48;;;7.72;;
12635;SDS011;6383;50.830;7.210;2022-09-28T05:26:25;10.40;;;8.60;;
12635;SDS011;6383;50.830;7.210;2022-09-28T05:28:53;9.85;;;8.48;;
12635;SDS011;6383;50.830;7.210;2022-09-28T05:31:21;10.73;;;8.13;;
12635;SDS011;6383;50.830;7.210;2022-09-28T05:33:49;13.77;;;9.98;;
12635;SDS011;6383;50.830;7.210;2022-09-28T05:36:18;10.38;;;9.30;;
12635;SDS011;6383;50.830;7.210;2022-09-28T05:38:48;17.38;;;10.25;;
12635;SDS011;6383;50.830;7.210;2022-09-28T05:41:17;12.63;;;10.27;;
12635;SDS011;6383;50.830;7.210;2022-09-28T05:43:45;11.43;;;10.15;;
12635;SDS011;6383;50.830;7.210;2022-09-28T05:46:13;17.08;;;11.48;;
12635;SDS011;6383;50.830;7.210;2022-09-28T05:48:42;11.40;;;10.18;;
12635;SDS011;6383;50.830;7.210;2022-09-28T05:51:10;13.68;;;10.77;;
12635;SDS011;6383;50.830;7.210;2022-09-28T05:53:39;11.63;;;10.43;;
12635;SDS011;6383;50.830;7.210;2022-09-28T05:56:06;13.05;;;11.68;;
12635;SDS011;6383;50.830;7.210;2022-09-28T05:58:34;15.88;;;12.52;;
12635;SDS011;6383;50.830;7.210;2022-09-28T06:01:03;15.27;;;12.00;;
12635;SDS011;6383;50.830;7.210;2022-09-28T06:03:32;15.10;;;10.57;;
12635;SDS011;6383;50.830;7.210;2022-09-28T06:06:02;19.40;;;11.13;;
12635;SDS011;6383;50.830;7.210;2022-09-28T06:08:29;13.73;;;12.32;;
12635;SDS011;6383;50.830;7.210;2022-09-28T06:10:59;13.90;;;10.82;;
12635;SDS011;6383;50.830;7.210;2022-09-28T06:13:27;17.30;;;10.85;;
12635;SDS011;6383;50.830;7.210;2022-09-28T06:15:56;11.20;;;10.02;;
12635;SDS011;6383;50.830;7.210;2022-09-28T06:18:24;11.57;;;9.73;;
12635;SDS011;6383;50.830;7.210;2022-09-28T06:20:51;14.60;;;9.45;;
12635;SDS011;6383;50.830;7.210;2022-09-28T06:23:21;10.32;;;8.82;;
12635;SDS011;6383;50.830;7.210;2022-09-28T06:25:50;9.43;;;7.78;;
12635;SDS011;6383;50.830;7.210;2022-09-28T06:28:17;9.27;;;7.43;;
12635;SDS011;6383;50.830;7.210;2022-09-28T06:30:46;8.38;;;7.32;;
12635;SDS011;6383;50.830;7.210;2022-09-28T06:33:15;13.18;;;7.13;;
12635;SDS011;6383;50.830;7.210;2022-09-28T06:35:44;8.13;;;6.57;;
12635;SDS011;6383;50.830;7.210;2022-09-28T06:38:13;11.90;;;6.35;;
12635;SDS011;6383;50.830;7.210;2022-09-28T06:40:43;8.35;;;5.07;;
12635;SDS011;6383;50.830;7.210;2022-09-28T06:43:13;9.27;;;6.38;;
12635;SDS011;6383;50.830;7.210;2022-09-28T06:45:43;14.38;;;7.05;;
12635;SDS011;6383;50.830;7.210;2022-09-28T06:48:17;6.18;;;5.55;;
12635;SDS011;6383;50.830;7.210;2022-09-28T06:50:48;9.50;;;5.90;;
12635;SDS011;6383;50.830;7.210;2022-09-28T06:53:17;10.00;;;5.10;;
12635;SDS011;6383;50.830;7.210;2022-09-28T06:55:48;9.75;;;5.20;;
12635;SDS011;6383;50.830;7.210;2022-09-28T06:58:18;7.85;;;4.70;;
12635;SDS011;6383;50.830;7.210;2022-09-28T07:00:49;8.73;;;4.85;;
12635;SDS011;6383;50.830;7.210;2022-09-28T07:03:19;6.43;;;4.70;;
12635;SDS011;6383;50.830;7.210;2022-09-28T07:05:50;7.60;;;4.45;;
12635;SDS011;6383;50.830;7.210;2022-09-28T07:08:20;7.18;;;5.05;;
12635;SDS011;6383;50.830;7.210;2022-09-28T07:10:52;6.38;;;4.30;;
12635;SDS011;6383;50.830;7.210;2022-09-28T07:13:23;5.35;;;4.00;;
12635;SDS011;6383;50.830;7.210;2022-09-28T07:15:54;4.32;;;3.42;;
12635;SDS011;6383;50.830;7.210;2022-09-28T07:18:24;19.92;;;6.05;;
12635;SDS011;6383;50.830;7.210;2022-09-28T07:20:55;10.35;;;7.68;;
12635;SDS011;6383;50.830;7.210;2022-09-28T07:23:25;12.55;;;7.00;;
12635;SDS011;6383;50.830;7.210;2022-09-28T07:25:57;7.40;;;3.90;;
12635;SDS011;6383;50.830;7.210;2022-09-28T07:28:30;8.05;;;4.72;;
12635;SDS011;6383;50.830;7.210;2022-09-28T07:31:00;7.45;;;4.82;;
12635;SDS011;6383;50.830;7.210;2022-09-28T07:33:28;6.03;;;4.25;;
12635;SDS011;6383;50.830;7.210;2022-09-28T07:35:57;6.60;;;3.55;;
12635;SDS011;6383;50.830;7.210;2022-09-28T07:38:31;13.27;;;4.10;;
12635;SDS011;6383;50.830;7.210;2022-09-28T07:41:01;8.27;;;4.15;;
12635;SDS011;6383;50.830;7.210;2022-09-28T07:43:38;6.75;;;4.53;;
12635;SDS011;6383;50.830;7.210;2022-09-28T07:46:08;8.93;;;5.00;;
12635;SDS011;6383;50.830;7.210;2022-09-28T07:48:39;10.55;;;4.15;;
12635;SDS011;6383;50.830;7.210;2022-09-28T07:51:08;18.60;;;5.95;;
12635;SDS011;6383;50.830;7.210;2022-09-28T07:53:38;15.93;;;5.03;;
12635;SDS011;6383;50.830;7.210;2022-09-28T07:56:07;6.82;;;4.72;;
12635;SDS011;6383;50.830;7.210;2022-09-28T07:58:36;7.13;;;3.92;;
12635;SDS011;6383;50.830;7.210;2022-09-28T08:01:06;5.28;;;3.78;;
12635;SDS011;6383;50.830;7.210;2022-09-28T08:03:37;8.18;;;4.25;;
12635;SDS011;6383;50.830;7.210;2022-09-28T08:06:05;6.80;;;3.47;;
12635;SDS011;6383;50.830;7.210;2022-09-28T08:08:38;8.48;;;3.90;;
12635;SDS011;6383;50.830;7.210;2022-09-28T08:11:11;13.90;;;4.88;;
12635;SDS011;6383;50.830;7.210;2022-09-28T08:13:40;8.10;;;3.70;;
12635;SDS011;6383;50.830;7.210;2022-09-28T08:16:10;5.20;;;3.88;;
12635;SDS011;6383;50.830;7.210;2022-09-28T08:18:39;12.40;;;6.50;;
12635;SDS011;6383;50.830;7.210;2022-09-28T08:21:08;6.95;;;5.72;;
12635;SDS011;6383;50.830;7.210;2022-09-28T08:23:55;6.35;;;3.85;;
12635;SDS011;6383;50.830;7.210;2022-09-28T08:26:26;12.15;;;8.50;;
12635;SDS011;6383;50.830;7.210;2022-09-28T08:28:55;7.35;;;3.97;;
12635;SDS011;6383;50.830;7.210;2022-09-28T08:31:27;7.03;;;5.45;;
12635;SDS011;6383;50.830;7.210;2022-09-28T08:33:56;6.65;;;3.85;;
12635;SDS011;6383;50.830;7.210;2022-09-28T08:36:25;6.70;;;3.92;;
12635;SDS011;6383;50.830;7.210;2022-09-28T08:38:55;9.23;;;3.90;;
12635;SDS011;6383;50.830;7.210;2022-09-28T08:41:25;4.53;;;3.33;;
12635;SDS011;6383;50.830;7.210;2022-09-28T08:44:08;6.20;;;4.05;;
12635;SDS011;6383;50.830;7.210;2022-09-28T08:46:42;6.22;;;2.72;;
12635;SDS011;6383;50.830;7.210;2022-09-28T08:49:17;4.47;;;3.58;;
12635;SDS011;6383;50.830;7.210;2022-09-28T08:51:53;8.60;;;3.30;;
12635;SDS011;6383;50.830;7.210;2022-09-28T08:54:26;3.03;;;2.80;;
12635;SDS011;6383;50.830;7.210;2022-09-28T08:57:03;3.75;;;2.20;;
12635;SDS011;6383;50.830;7.210;2022-09-28T08:59:39;6.07;;;2.05;;
12635;SDS011;6383;50.830;7.210;2022-09-28T09:02:14;5.38;;;2.63;;
12635;SDS011;6383;50.830;7.210;2022-09-28T09:04:46;4.57;;;3.33;;
12635;SDS011;6383;50.830;7.210;2022-09-28T09:07:23;10.77;;;3.75;;
12635;SDS011;6383;50.830;7.210;2022-09-28T09:10:12;3.60;;;2.75;;
12635;SDS011;6383;50.830;7.210;2022-09-28T09:13:03;10.55;;;2.10;;
12635;SDS011;6383;50.830;7.210;2022-09-28T09:15:43;5.45;;;3.65;;
12635;SDS011;6383;50.830;7.210;2022-09-28T09:18:24;5.47;;;2.42;;
12635;SDS011;6383;50.830;7.210;2022-09-28T09:21:02;5.75;;;5.32;;
12635;SDS011;6383;50.830;7.210;2022-09-28T09:23:41;3.38;;;2.33;;
12635;SDS011;6383;50.830;7.210;2022-09-28T09:26:20;4.93;;;2.38;;
12635;SDS011;6383;50.830;7.210;2022-09-28T09:29:18;4.30;;;1.58;;
12635;SDS011;6383;50.830;7.210;2022-09-28T09:34:57;3.20;;;1.55;;
12635;SDS011;6383;50.830;7.210;2022-09-28T09:37:44;5.63;;;1.25;;
12635;SDS011;6383;50.830;7.210;2022-09-28T09:43:43;3.63;;;1.35;;
12635;SDS011;6383;50.830;7.210;2022-09-28T09:46:33;4.80;;;1.27;;
12635;SDS011;6383;50.830;7.210;2022-09-28T09:49:04;3.15;;;1.25;;
12635;SDS011;6383;50.830;7.210;2022-09-28T09:51:38;5.07;;;1.10;;
12635;SDS011;6383;50.830;7.210;2022-09-28T09:54:32;1.20;;;1.10;;
12635;SDS011;6383;50.830;7.210;2022-09-28T09:57:04;7.28;;;3.75;;
12635;SDS011;6383;50.830;7.210;2022-09-28T09:59:39;3.28;;;2.58;;
12635;SDS011;6383;50.830;7.210;2022-09-28T10:02:14;1.60;;;1.50;;
12635;SDS011;6383;50.830;7.210;2022-09-28T10:04:53;3.58;;;1.50;;
12635;SDS011;6383;50.830;7.210;2022-09-28T10:07:36;4.60;;;3.88;;
12635;SDS011;6383;50.830;7.210;2022-09-28T10:10:10;8.60;;;3.95;;
12635;SDS011;6383;50.830;7.210;2022-09-28T10:12:42;3.10;;;2.03;;
12635;SDS011;6383;50.830;7.210;2022-09-28T10:15:14;4.55;;;1.80;;
12635;SDS011;6383;50.830;7.210;2022-09-28T10:17:47;3.00;;;1.45;;
12635;SDS011;6383;50.830;7.210;2022-09-28T10:20:16;2.72;;;1.33;;
12635;SDS011;6383;50.830;7.210;2022-09-28T10:22:45;2.92;;;1.38;;
12635;SDS011;6383;50.830;7.210;2022-09-28T10:25:14;5.65;;;1.27;;
12635;SDS011;6383;50.830;7.210;2022-09-28T10:27:44;1.42;;;1.08;;
12635;SDS011;6383;50.830;7.210;2022-09-28T10:30:16;2.85;;;0.82;;
12635;SDS011;6383;50.830;7.210;2022-09-28T10:32:45;3.22;;;1.30;;
12635;SDS011;6383;50.830;7.210;2022-09-28T10:35:21;5.88;;;1.60;;
12635;SDS011;6383;50.830;7.210;2022-09-28T10:37:54;3.28;;;1.33;;
12635;SDS011;6383;50.830;7.210;2022-09-28T10:40:26;1.95;;;1.23;;
12635;SDS011;6383;50.830;7.210;2022-09-28T10:43:00;5.30;;;0.98;;
12635;SDS011;6383;50.830;7.210;2022-09-28T10:48:05;3.00;;;1.25;;
12635;SDS011;6383;50.830;7.210;2022-09-28T10:50:43;6.47;;;1.00;;
12635;SDS011;6383;50.830;7.210;2022-09-28T10:53:25;2.80;;;1.13;;
12635;SDS011;6383;50.830;7.210;2022-09-28T10:55:58;4.05;;;1.10;;
12635;SDS011;6383;50.830;7.210;2022-09-28T10:58:32;2.45;;;1.02;;
12635;SDS011;6383;50.830;7.210;2022-09-28T11:01:05;2.20;;;0.77;;
12635;SDS011;6383;50.830;7.210;2022-09-28T11:03:46;2.72;;;0.80;;
12635;SDS011;6383;50.830;7.210;2022-09-28T11:06:22;4.65;;;2.00;;
12635;SDS011;6383;50.830;7.210;2022-09-28T11:18:52;5.30;;;2.53;;
12635;SDS011;6383;50.830;7.210;2022-09-28T11:21:24;3.35;;;1.65;;
12635;SDS011;6383;50.830;7.210;2022-09-28T11:23:57;3.72;;;1.02;;
12635;SDS011;6383;50.830;7.210;2022-09-28T11:26:33;1.60;;;0.70;;
12635;SDS011;6383;50.830;7.210;2022-09-28T11:29:04;6.03;;;2.58;;
12635;SDS011;6383;50.830;7.210;2022-09-28T11:31:34;3.00;;;1.73;;
12635;SDS011;6383;50.830;7.210;2022-09-28T11:34:12;0.80;;;0.70;;
12635;SDS011;6383;50.830;7.210;2022-09-28T11:36:48;1.20;;;0.85;;
12635;SDS011;6383;50.830;7.210;2022-09-28T11:39:32;1.80;;;1.20;;
12635;SDS011;6383;50.830;7.210;2022-09-28T11:42:10;3.28;;;1.00;;
12635;SDS011;6383;50.830;7.210;2022-09-28T11:44:46;4.50;;;1.15;;
12635;SDS011;6383;50.830;7.210;2022-09-28T11:47:31;6.25;;;1.17;;
12635;SDS011;6383;50.830;7.210;2022-09-28T11:50:21;1.60;;;0.80;;
12635;SDS011;6383;50.830;7.210;2022-09-28T11:52:57;1.48;;;0.60;;
12635;SDS011;6383;50.830;7.210;2022-09-28T11:55:31;3.03;;;1.35;;
12635;SDS011;6383;50.830;7.210;2022-09-28T11:58:04;2.75;;;1.05;;
12635;SDS011;6383;50.830;7.210;2022-09-28T12:00:37;5.40;;;1.10;;
12635;SDS011;6383;50.830;7.210;2022-09-28T12:03:11;3.92;;;1.63;;
12635;SDS011;6383;50.830;7.210;2022-09-28T12:05:46;6.13;;;1.10;;
12635;SDS011;6383;50.830;7.210;2022-09-28T12:08:19;16.85;;;10.75;;
12635;SDS011;6383;50.830;7.210;2022-09-28T12:10:55;4.95;;;2.15;;
12635;SDS011;6383;50.830;7.210;2022-09-28T12:13:28;2.38;;;1.88;;
12635;SDS011;6383;50.830;7.210;2022-09-28T12:16:01;3.67;;;0.98;;
12635;SDS011;6383;50.830;7.210;2022-09-28T12:18:36;3.20;;;1.35;;
12635;SDS011;6383;50.830;7.210;2022-09-28T12:21:17;3.95;;;1.15;;
12635;SDS011;6383;50.830;7.210;2022-09-28T12:23:55;2.08;;;1.13;;
12635;SDS011;6383;50.830;7.210;2022-09-28T12:26:31;2.00;;;1.23;;
12635;SDS011;6383;50.830;7.210;2022-09-28T12:29:05;1.73;;;0.90;;
12635;SDS011;6383;50.830;7.210;2022-09-28T12:31:44;2.67;;;1.25;;
12635;SDS011;6383;50.830;7.210;2022-09-28T12:34:20;1.63;;;0.95;;
12635;SDS011;6383;50.830;7.210;2022-09-28T12:36:54;1.38;;;1.10;;
12635;SDS011;6383;50.830;7.210;2022-09-28T12:39:45;4.28;;;1.73;;
12635;SDS011;6383;50.830;7.210;2022-09-28T12:42:31;4.32;;;1.60;;
12635;SDS011;6383;50.830;7.210;2022-09-28T12:45:22;4.68;;;2.83;;
12635;SDS011;6383;50.830;7.210;2022-09-28T12:48:07;1.85;;;1.45;;
12635;SDS011;6383;50.830;7.210;2022-09-28T12:50:47;3.58;;;3.20;;
12635;SDS011;6383;50.830;7.210;2022-09-28T12:53:36;4.78;;;2.38;;
12635;SDS011;6383;50.830;7.210;2022-09-28T12:56:18;10.50;;;1.90;;
12635;SDS011;6383;50.830;7.210;2022-09-28T12:58:58;4.78;;;0.75;;
12635;SDS011;6383;50.830;7.210;2022-09-28T13:05:00;4.13;;;1.30;;
12635;SDS011;6383;50.830;7.210;2022-09-28T13:07:44;6.28;;;1.30;;
12635;SDS011;6383;50.830;7.210;2022-09-28T13:10:25;5.75;;;1.10;;
12635;SDS011;6383;50.830;7.210;2022-09-28T13:13:02;4.90;;;1.00;;
12635;SDS011;6383;50.830;7.210;2022-09-28T13:15:44;2.85;;;1.27;;
12635;SDS011;6383;50.830;7.210;2022-09-28T13:23:49;1.48;;;0.75;;
12635;SDS011;6383;50.830;7.210;2022-09-28T13:26:24;1.80;;;0.85;;
12635;SDS011;6383;50.830;7.210;2022-09-28T13:28:59;2.10;;;1.00;;
12635;SDS011;6383;50.830;7.210;2022-09-28T13:31:31;1.67;;;0.75;;
12635;SDS011;6383;50.830;7.210;2022-09-28T13:34:00;1.58;;;0.80;;
12635;SDS011;6383;50.830;7.210;2022-09-28T13:36:38;4.47;;;1.17;;
12635;SDS011;6383;50.830;7.210;2022-09-28T13:42:06;6.13;;;2.08;;
12635;SDS011;6383;50.830;7.210;2022-09-28T13:44:49;5.65;;;3.80;;
12635;SDS011;6383;50.830;7.210;2022-09-28T13:47:37;5.47;;;2.28;;
12635;SDS011;6383;50.830;7.210;2022-09-28T13:50:17;3.60;;;1.90;;
12635;SDS011;6383;50.830;7.210;2022-09-28T13:52:56;6.95;;;3.47;;
12635;SDS011;6383;50.830;7.210;2022-09-28T13:55:31;4.75;;;3.60;;
12635;SDS011;6383;50.830;7.210;2022-09-28T13:58:12;8.40;;;5.25;;
12635;SDS011;6383;50.830;7.210;2022-09-28T14:00:45;10.27;;;4.82;;
12635;SDS011;6383;50.830;7.210;2022-09-28T14:03:23;5.10;;;2.53;;
12635;SDS011;6383;50.830;7.210;2022-09-28T14:06:03;8.90;;;4.57;;
12635;SDS011;6383;50.830;7.210;2022-09-28T14:08:37;7.82;;;4.00;;
12635;SDS011;6383;50.830;7.210;2022-09-28T14:14:42;2.87;;;2.57;;
12635;SDS011;6383;50.830;7.210;2022-09-28T14:20:22;2.72;;;1.65;;
12635;SDS011;6383;50.830;7.210;2022-09-28T14:25:58;7.35;;;1.23;;
12635;SDS011;6383;50.830;7.210;2022-09-28T14:28:43;5.70;;;1.10;;
12635;SDS011;6383;50.830;7.210;2022-09-28T14:31:22;3.63;;;1.30;;
12635;SDS011;6383;50.830;7.210;2022-09-28T14:33:53;4.03;;;1.40;;
12635;SDS011;6383;50.830;7.210;2022-09-28T14:36:25;1.73;;;1.40;;
12635;SDS011;6383;50.830;7.210;2022-09-28T14:39:18;5.55;;;1.80;;
12635;SDS011;6383;50.830;7.210;2022-09-28T14:42:09;9.60;;;2.55;;
12635;SDS011;6383;50.830;7.210;2022-09-28T14:50:49;9.75;;;2.03;;
12635;SDS011;6383;50.830;7.210;2022-09-28T14:53:22;2.45;;;1.38;;
12635;SDS011;6383;50.830;7.210;2022-09-28T14:55:53;3.28;;;1.50;;
12635;SDS011;6383;50.830;7.210;2022-09-28T14:58:24;6.10;;;2.50;;
12635;SDS011;6383;50.830;7.210;2022-09-28T15:00:55;2.58;;;1.50;;
12635;SDS011;6383;50.830;7.210;2022-09-28T15:03:31;5.63;;;1.85;;
12635;SDS011;6383;50.830;7.210;2022-09-28T15:06:01;3.72;;;2.28;;
12635;SDS011;6383;50.830;7.210;2022-09-28T15:08:36;4.72;;;2.35;;
12635;SDS011;6383;50.830;7.210;2022-09-28T15:13:37;7.80;;;2.10;;
12635;SDS011;6383;50.830;7.210;2022-09-28T15:16:06;4.13;;;1.58;;
12635;SDS011;6383;50.830;7.210;2022-09-28T15:21:36;2.80;;;1.70;;
12635;SDS011;6383;50.830;7.210;2022-09-28T15:26:53;3.58;;;2.03;;
12635;SDS011;6383;50.830;7.210;2022-09-28T15:29:22;5.45;;;3.05;;
12635;SDS011;6383;50.830;7.210;2022-09-28T15:31:53;7.57;;;2.83;;
12635;SDS011;6383;50.830;7.210;2022-09-28T15:34:29;5.95;;;3.55;;
12635;SDS011;6383;50.830;7.210;2022-09-28T15:37:16;6.97;;;2.20;;
12635;SDS011;6383;50.830;7.210;2022-09-28T15:39:46;10.05;;;4.60;;
12635;SDS011;6383;50.830;7.210;2022-09-28T15:42:15;10.43;;;4.00;;
12635;SDS011;6383;50.830;7.210;2022-09-28T15:44:58;8.07;;;4.93;;
12635;SDS011;6383;50.830;7.210;2022-09-28T15:47:34;28.23;;;18.45;;
12635;SDS011;6383;50.830;7.210;2022-09-28T15:50:06;15.52;;;11.57;;
12635;SDS011;6383;50.830;7.210;2022-09-28T15:52:51;6.97;;;3.97;;
12635;SDS011;6383;50.830;7.210;2022-09-28T15:55:22;4.78;;;2.35;;
12635;SDS011;6383;50.830;7.210;2022-09-28T15:58:03;4.78;;;2.17;;
12635;SDS011;6383;50.830;7.210;2022-09-28T16:00:33;5.55;;;2.20;;
12635;SDS011;6383;50.830;7.210;2022-09-28T16:03:02;4.68;;;2.05;;
12635;SDS011;6383;50.830;7.210;2022-09-28T16:05:49;3.97;;;2.13;;
12635;SDS011;6383;50.830;7.210;2022-09-28T16:08:18;5.70;;;1.50;;
12635;SDS011;6383;50.830;7.210;2022-09-28T16:10:56;5.80;;;2.55;;
12635;SDS011;6383;50.830;7.210;2022-09-28T16:13:31;6.78;;;2.30;;
12635;SDS011;6383;50.830;7.210;2022-09-28T16:15:59;8.07;;;1.77;;
12635;SDS011;6383;50.830;7.210;2022-09-28T16:18:29;7.70;;;1.95;;
12635;SDS011;6383;50.830;7.210;2022-09-28T16:21:22;2.65;;;1.50;;
12635;SDS011;6383;50.830;7.210;2022-09-28T16:24:05;2.10;;;1.30;;
12635;SDS011;6383;50.830;7.210;2022-09-28T16:26:35;1.58;;;1.05;;
12635;SDS011;6383;50.830;7.210;2022-09-28T16:29:06;1.58;;;0.95;;
12635;SDS011;6383;50.830;7.210;2022-09-28T16:31:36;1.17;;;0.85;;
12635;SDS011;6383;50.830;7.210;2022-09-28T16:34:15;0.80;;;0.80;;
12635;SDS011;6383;50.830;7.210;2022-09-28T16:36:48;7.03;;;0.98;;
12635;SDS011;6383;50.830;7.210;2022-09-28T16:39:18;2.65;;;1.15;;